Hauptseite
METAR-TAF:

METAR-TAF

Flughäfen :

Flughafen Calvi

Calvi, Frankreich

Breite: 42-32N, Länge: 008-48E, Höhe: 64 m

Beobachtung

Neuester Wetterbericht von vor 28 Minuten, um 13:00 UTC
Wind 5 kt aus unterschiedlichen Richtungen
Temperatur 31°C
Luftfeuchtigkeit 38%
Luftdruck 1013 hPa
Sichtweite 10 km oder mehr
keine Wolken unter 1500 m und keine Kumulonimbus oder Gewitterwolken

METAR: LFKC 171300Z AUTO VRB05KT CAVOK 31/15 Q1013 NOSIG

Zeit: 15:28 (13:28 UTC)

Prognose

Neuester Wetterbericht von vor 5 Stunden und 28 Minuten, um 08:00 UTC
Gültige Prognose vom 17 um 09 UTC bis 18 um 09 UTC
Wind 5 kt aus unterschiedlichen Richtungen
Sichtweite 10 km oder mehr
keine Wolken unter 1500 m und keine Kumulonimbus oder Gewitterwolken
Zeitweise
vom 17 um 10 UTC bis 17 um 12 UTC
Wind 10 kt aus West/Nordwest

TAF: LFKC 170800Z 1709/1809 VRB05KT CAVOK TX31/1713Z TN18/1803Z TEMPO 1710/1712 30010KT

Wetterbeobachtungen und Prognosen von mehr als 4000 Flughäfen (METAR und TAF Bericht).

Die verfügbaren Stationen werden durch gelbe und rote Markierungen auf der Karte dargestellt.

Führen Sie die Maus auf sie, um den Namen der Station zu sehen.

Darauf klicken, um die Beobachtung von Wetterbeobachtungen und Prognosen zu sehen.

Um die Karte zu ändern : klicken Sie auf den grünen Tasten mit einem schwarzen Kreuz Zum Vergrößern, auf den grünen Button mit einem Gedankenstrich zu verkleinern, oder auf die grünen Pfeile für benachbarte Karten.


METAR-TAF: